Station Historical Data
Daily Summary for February 6, 2012 Units:  Both    English   Metric
« Previous Day
Next Day »
Daily Weekly Monthly Yearly Custom
  High: Low: Average:
Temperature: 53.5 °F /  11.9 °C 38.8 °F /  3.8 °C 45.4 °F /  7.4 °C
Dew Point: 42.7 °F /  5.9 °C 35.8 °F /  2.1 °C 40.2 °F /  4.6 °C
Humidity: 96% 60% 83%
Wind Speed: 9.0mph /  14.5km/h - 2.7mph /  4.3km/h
Wind Gust: 11.0mph /  17.7km/h - -
Wind- - WSW
Pressure: 30.26 in /  1024.6 hPa 30.17 in /  1021.6 hPa -
Precipitation: 0.00 in /  0 mm    
Historical Graphs
 
 
Tabular Data for February 6, 2012
Time Temperature Dew Point Pressure Wind Wind Speed Wind Gust Humidity Rainfall Rate (Hourly) Conditions
00:00 42.8 °F /  6 °C 41.2 °F /  5.1 °C 30.18in /  1021.9hPa NW 1.0mph /  1.6km/h 2.0mph /  3.2km/h 94% 0.00in /  0mm
00:01 42.8 °F /  6 °C 41.2 °F /  5.1 °C 30.18in /  1021.9hPa NW 2.0mph /  3.2km/h 2.0mph /  3.2km/h 94% 0.00in /  0mm
00:06 42.8 °F /  6 °C 41.2 °F /  5.1 °C 30.18in /  1021.9hPa NW 2.0mph /  3.2km/h 2.0mph /  3.2km/h 94% 0.00in /  0mm
00:11 42.7 °F /  5.9 °C 41.1 °F /  5.1 °C 30.18in /  1021.9hPa NW 2.0mph /  3.2km/h 3.0mph /  4.8km/h 94% 0.00in /  0mm
00:16 42.8 °F /  6 °C 41.2 °F /  5.1 °C 30.18in /  1021.9hPa NW 1.0mph /  1.6km/h 2.0mph /  3.2km/h 94% 0.00in /  0mm
00:21 42.9 °F /  6.1 °C 41.6 °F /  5.3 °C 30.18in /  1021.9hPa NW 2.0mph /  3.2km/h 2.0mph /  3.2km/h 95% 0.00in /  0mm
00:26 43.0 °F /  6.1 °C 41.7 °F /  5.4 °C 30.18in /  1021.9hPa NW 1.0mph /  1.6km/h 2.0mph /  3.2km/h 95% 0.00in /  0mm
00:31 43.0 °F /  6.1 °C 41.4 °F /  5.2 °C 30.18in /  1021.9hPa NW 2.0mph /  3.2km/h 2.0mph /  3.2km/h 94% 0.00in /  0mm
00:36 43.0 °F /  6.1 °C 41.7 °F /  5.4 °C 30.18in /  1021.9hPa NW 2.0mph /  3.2km/h 3.0mph /  4.8km/h 95% 0.00in /  0mm
00:41 43.1 °F /  6.2 °C 41.8 °F /  5.4 °C 30.18in /  1021.9hPa NNW 2.0mph /  3.2km/h 4.0mph /  6.4km/h 95% 0.00in /  0mm
00:46 43.2 °F /  6.2 °C 41.9 °F /  5.5 °C 30.19in /  1022.2hPa NW 2.0mph /  3.2km/h 3.0mph /  4.8km/h 95% 0.00in /  0mm
00:51 43.3 °F /  6.3 °C 42.0 °F /  5.6 °C 30.19in /  1022.2hPa WNW 2.0mph /  3.2km/h 3.0mph /  4.8km/h 95% 0.00in /  0mm
00:56 43.4 °F /  6.3 °C 42.1 °F /  5.6 °C 30.19in /  1022.2hPa WNW 1.0mph /  1.6km/h 3.0mph /  4.8km/h 95% 0.00in /  0mm
01:02 43.4 °F /  6.3 °C 42.1 °F /  5.6 °C 30.19in /  1022.2hPa Calm   1.0mph /  1.6km/h 95% 0.00in /  0mm
01:07 43.6 °F /  6.4 °C 42.3 °F /  5.7 °C 30.19in /  1022.2hPa West 1.0mph /  1.6km/h 1.0mph /  1.6km/h 95% 0.00in /  0mm
01:12 43.7 °F /  6.5 °C 42.4 °F /  5.8 °C 30.20in /  1022.6hPa West 1.0mph /  1.6km/h 2.0mph /  3.2km/h 95% 0.00in /  0mm
01:17 43.7 °F /  6.5 °C 42.4 °F /  5.8 °C 30.20in /  1022.6hPa NW 2.0mph /  3.2km/h 2.0mph /  3.2km/h 95% 0.00in /  0mm
01:22 43.7 °F /  6.5 °C 42.4 °F /  5.8 °C 30.20in /  1022.6hPa NW 2.0mph /  3.2km/h 2.0mph /  3.2km/h 95% 0.00in /  0mm
01:27 43.7 °F /  6.5 °C 42.4 °F /  5.8 °C 30.20in /  1022.6hPa NW 1.0mph /  1.6km/h 1.0mph /  1.6km/h 95% 0.00in /  0mm
01:32 43.7 °F /  6.5 °C 42.4 °F /  5.8 °C 30.19in /  1022.2hPa NW 1.0mph /  1.6km/h 2.0mph /  3.2km/h 95% 0.00in /  0mm
01:37 43.6 °F /  6.4 °C 42.3 °F /  5.7 °C 30.19in /  1022.2hPa Calm   1.0mph /  1.6km/h 95% 0.00in /  0mm
01:42 43.6 °F /  6.4 °C 42.3 °F /  5.7 °C 30.19in /  1022.2hPa NW 2.0mph /  3.2km/h 3.0mph /  4.8km/h 95% 0.00in /  0mm
01:47 43.5 °F /  6.4 °C 42.2 °F /  5.7 °C 30.19in /  1022.2hPa NNW 4.0mph /  6.4km/h 6.0mph /  9.7km/h 95% 0.00in /  0mm
01:52 43.7 °F /  6.5 °C 42.1 °F /  5.6 °C 30.19in /  1022.2hPa NW 5.0mph /  8km/h 8.0mph /  12.9km/h 94% 0.00in /  0mm
01:57 44.0 °F /  6.7 °C 42.1 °F /  5.6 °C 30.19in /  1022.2hPa North 4.0mph /  6.4km/h 6.0mph /  9.7km/h 93% 0.00in /  0mm
02:02 44.1 °F /  6.7 °C 42.2 °F /  5.7 °C 30.19in /  1022.2hPa NNW 4.0mph /  6.4km/h 7.0mph /  11.3km/h 93% 0.00in /  0mm
02:07 44.2 °F /  6.8 °C 42.0 °F /  5.6 °C 30.19in /  1022.2hPa North 7.0mph /  11.3km/h 7.0mph /  11.3km/h 92% 0.00in /  0mm
02:12 44.3 °F /  6.8 °C 42.1 °F /  5.6 °C 30.19in /  1022.2hPa NNW 3.0mph /  4.8km/h 4.0mph /  6.4km/h 92% 0.00in /  0mm
02:17 44.3 °F /  6.8 °C 42.1 °F /  5.6 °C 30.19in /  1022.2hPa NNW 5.0mph /  8km/h 5.0mph /  8km/h 92% 0.00in /  0mm
02:22 44.3 °F /  6.8 °C 42.1 °F /  5.6 °C 30.19in /  1022.2hPa NNW 2.0mph /  3.2km/h 5.0mph /  8km/h 92% 0.00in /  0mm
02:27 44.3 °F /  6.8 °C 42.1 °F /  5.6 °C 30.19in /  1022.2hPa NNW 4.0mph /  6.4km/h 4.0mph /  6.4km/h 92% 0.00in /  0mm
02:32 44.2 °F /  6.8 °C 42.0 °F /  5.6 °C 30.18in /  1021.9hPa NNW 3.0mph /  4.8km/h 5.0mph /  8km/h 92% 0.00in /  0mm
02:37 44.2 °F /  6.8 °C 42.0 °F /  5.6 °C 30.18in /  1021.9hPa NNW 3.0mph /  4.8km/h 4.0mph /  6.4km/h 92% 0.00in /  0mm
02:42 44.1 °F /  6.7 °C 41.9 °F /  5.5 °C 30.18in /  1021.9hPa NNW 2.0mph /  3.2km/h 4.0mph /  6.4km/h 92% 0.00in /  0mm
02:47 44.0 °F /  6.7 °C 41.8 °F /  5.4 °C 30.19in /  1022.2hPa North 3.0mph /  4.8km/h 4.0mph /  6.4km/h 92% 0.00in /  0mm
02:52 44.0 °F /  6.7 °C 41.8 °F /  5.4 °C 30.19in /  1022.2hPa NNW 3.0mph /  4.8km/h 4.0mph /  6.4km/h 92% 0.00in /  0mm
02:57 44.0 °F /  6.7 °C 41.8 °F /  5.4 °C 30.19in /  1022.2hPa North 2.0mph /  3.2km/h 3.0mph /  4.8km/h 92% 0.00in /  0mm
03:02 43.9 °F /  6.6 °C 41.7 °F /  5.4 °C 30.19in /  1022.2hPa North 2.0mph /  3.2km/h 3.0mph /  4.8km/h 92% 0.00in /  0mm
03:07 43.9 °F /  6.6 °C 42.0 °F /  5.6 °C 30.18in /  1021.9hPa NNW 1.0mph /  1.6km/h 4.0mph /  6.4km/h 93% 0.00in /  0mm
03:12 43.9 °F /  6.6 °C 42.0 °F /  5.6 °C 30.19in /  1022.2hPa NNW 2.0mph /  3.2km/h 2.0mph /  3.2km/h 93% 0.00in /  0mm
03:17 43.9 °F /  6.6 °C 42.0 °F /  5.6 °C 30.19in /  1022.2hPa North 2.0mph /  3.2km/h 4.0mph /  6.4km/h 93% 0.00in /  0mm
03:22 43.9 °F /  6.6 °C 42.0 °F /  5.6 °C 30.19in /  1022.2hPa NNW 1.0mph /  1.6km/h 3.0mph /  4.8km/h 93% 0.00in /  0mm
03:28 43.9 °F /  6.6 °C 42.0 °F /  5.6 °C 30.19in /  1022.2hPa North 3.0mph /  4.8km/h 3.0mph /  4.8km/h 93% 0.00in /  0mm
03:33 43.8 °F /  6.6 °C 41.9 °F /  5.5 °C 30.19in /  1022.2hPa NW 3.0mph /  4.8km/h 3.0mph /  4.8km/h 93% 0.00in /  0mm
03:38 43.9 °F /  6.6 °C 42.0 °F /  5.6 °C 30.19in /  1022.2hPa NNW 2.0mph /  3.2km/h 5.0mph /  8km/h 93% 0.00in /  0mm
03:43 43.8 °F /  6.6 °C 41.9 °F /  5.5 °C 30.19in /  1022.2hPa North 4.0mph /  6.4km/h 4.0mph /  6.4km/h 93% 0.00in /  0mm
03:48 43.8 °F /  6.6 °C 41.9 °F /  5.5 °C 30.19in /  1022.2hPa NNE 3.0mph /  4.8km/h 3.0mph /  4.8km/h 93% 0.00in /  0mm
03:53 43.8 °F /  6.6 °C 41.9 °F /  5.5 °C 30.19in /  1022.2hPa NNW 2.0mph /  3.2km/h 4.0mph /  6.4km/h 93% 0.00in /  0mm
03:58 43.8 °F /  6.6 °C 41.9 °F /  5.5 °C 30.19in /  1022.2hPa NNW 3.0mph /  4.8km/h 4.0mph /  6.4km/h 93% 0.00in /  0mm
04:03 43.9 °F /  6.6 °C 42.0 °F /  5.6 °C 30.19in /  1022.2hPa NW 2.0mph /  3.2km/h 3.0mph /  4.8km/h 93% 0.00in /  0mm
04:08 43.9 °F /  6.6 °C 42.0 °F /  5.6 °C 30.19in /  1022.2hPa NNW 1.0mph /  1.6km/h 4.0mph /  6.4km/h 93% 0.00in /  0mm
04:13 43.8 °F /  6.6 °C 41.9 °F /  5.5 °C 30.19in /  1022.2hPa NW 2.0mph /  3.2km/h 2.0mph /  3.2km/h 93% 0.00in /  0mm
04:18 43.8 °F /  6.6 °C 41.9 °F /  5.5 °C 30.19in /  1022.2hPa NW 3.0mph /  4.8km/h 5.0mph /  8km/h 93% 0.00in /  0mm
04:23 43.8 °F /  6.6 °C 41.9 °F /  5.5 °C 30.19in /  1022.2hPa NNW 3.0mph /  4.8km/h 4.0mph /  6.4km/h 93% 0.00in /  0mm
04:28 43.7 °F /  6.5 °C 41.8 °F /  5.4 °C 30.19in /  1022.2hPa NNW 2.0mph /  3.2km/h 3.0mph /  4.8km/h 93% 0.00in /  0mm
04:33 43.7 °F /  6.5 °C 41.8 °F /  5.4 °C 30.19in /  1022.2hPa NW 1.0mph /  1.6km/h 3.0mph /  4.8km/h 93% 0.00in /  0mm
04:38 43.7 °F /  6.5 °C 41.8 °F /  5.4 °C 30.19in /  1022.2hPa NNW 3.0mph /  4.8km/h 3.0mph /  4.8km/h 93% 0.00in /  0mm
04:43 43.7 °F /  6.5 °C 41.8 °F /  5.4 °C 30.18in /  1021.9hPa NNW 2.0mph /  3.2km/h 3.0mph /  4.8km/h 93% 0.00in /  0mm
04:48 43.7 °F /  6.5 °C 41.8 °F /  5.4 °C 30.19in /  1022.2hPa NW 2.0mph /  3.2km/h 3.0mph /  4.8km/h 93% 0.00in /  0mm
04:53 43.7 °F /  6.5 °C 41.8 °F /  5.4 °C 30.19in /  1022.2hPa NNW 1.0mph /  1.6km/h 4.0mph /  6.4km/h 93% 0.00in /  0mm
04:58 43.7 °F /  6.5 °C 41.8 °F /  5.4 °C 30.18in /  1021.9hPa North 2.0mph /  3.2km/h 3.0mph /  4.8km/h 93% 0.00in /  0mm
05:03 43.6 °F /  6.4 °C 41.7 °F /  5.4 °C 30.18in /  1021.9hPa North 3.0mph /  4.8km/h 3.0mph /  4.8km/h 93% 0.00in /  0mm
05:08 43.6 °F /  6.4 °C 41.7 °F /  5.4 °C 30.19in /  1022.2hPa NNW 3.0mph /  4.8km/h 4.0mph /  6.4km/h 93% 0.00in /  0mm
05:13 43.6 °F /  6.4 °C 41.7 °F /  5.4 °C 30.18in /  1021.9hPa North 2.0mph /  3.2km/h 3.0mph /  4.8km/h 93% 0.00in /  0mm
05:18 43.5 °F /  6.4 °C 41.6 °F /  5.3 °C 30.18in /  1021.9hPa North 2.0mph /  3.2km/h 2.0mph /  3.2km/h 93% 0.00in /  0mm
05:23 43.5 °F /  6.4 °C 41.6 °F /  5.3 °C 30.19in /  1022.2hPa North 1.0mph /  1.6km/h 3.0mph /  4.8km/h 93% 0.00in /  0mm
05:28 43.5 °F /  6.4 °C 41.6 °F /  5.3 °C 30.19in /  1022.2hPa NNE 1.0mph /  1.6km/h 3.0mph /  4.8km/h 93% 0.00in /  0mm
05:33 43.5 °F /  6.4 °C 41.6 °F /  5.3 °C 30.19in /  1022.2hPa North 1.0mph /  1.6km/h 2.0mph /  3.2km/h 93% 0.00in /  0mm
05:38 43.4 °F /  6.3 °C 41.5 °F /  5.3 °C 30.19in /  1022.2hPa Calm   2.0mph /  3.2km/h 93% 0.00in /  0mm
05:43 43.4 °F /  6.3 °C 41.5 °F /  5.3 °C 30.19in /  1022.2hPa Calm   2.0mph /  3.2km/h 93% 0.00in /  0mm
05:48 43.3 °F /  6.3 °C 41.4 °F /  5.2 °C 30.19in /  1022.2hPa North 1.0mph /  1.6km/h 1.0mph /  1.6km/h 93% 0.00in /  0mm
05:53 43.3 °F /  6.3 °C 41.4 °F /  5.2 °C 30.20in /  1022.6hPa NNW 1.0mph /  1.6km/h 1.0mph /  1.6km/h 93% 0.00in /  0mm
05:58 43.3 °F /  6.3 °C 41.7 °F /  5.4 °C 30.20in /  1022.6hPa NNW 1.0mph /  1.6km/h 1.0mph /  1.6km/h 94% 0.00in /  0mm
06:03 43.3 °F /  6.3 °C 41.7 °F /  5.4 °C 30.20in /  1022.6hPa Calm   2.0mph /  3.2km/h 94% 0.00in /  0mm
06:08 43.3 °F /  6.3 °C 41.7 °F /  5.4 °C 30.20in /  1022.6hPa NW 2.0mph /  3.2km/h 2.0mph /  3.2km/h 94% 0.00in /  0mm
06:13 43.3 °F /  6.3 °C 41.7 °F /  5.4 °C 30.20in /  1022.6hPa Calm   2.0mph /  3.2km/h 94% 0.00in /  0mm
06:18 43.3 °F /  6.3 °C 41.7 °F /  5.4 °C 30.20in /  1022.6hPa NW 2.0mph /  3.2km/h 4.0mph /  6.4km/h 94% 0.00in /  0mm
06:23 43.4 °F /  6.3 °C 41.8 °F /  5.4 °C 30.20in /  1022.6hPa NW 3.0mph /  4.8km/h 4.0mph /  6.4km/h 94% 0.00in /  0mm
06:28 43.4 °F /  6.3 °C 41.5 °F /  5.3 °C 30.20in /  1022.6hPa WNW 4.0mph /  6.4km/h 5.0mph /  8km/h 93% 0.00in /  0mm
06:33 43.4 °F /  6.3 °C 41.5 °F /  5.3 °C 30.20in /  1022.6hPa NW 3.0mph /  4.8km/h 5.0mph /  8km/h 93% 0.00in /  0mm
06:38 43.3 °F /  6.3 °C 41.4 °F /  5.2 °C 30.20in /  1022.6hPa NW 2.0mph /  3.2km/h 6.0mph /  9.7km/h 93% 0.00in /  0mm
06:43 43.2 °F /  6.2 °C 41.3 °F /  5.2 °C 30.20in /  1022.6hPa WNW 3.0mph /  4.8km/h 5.0mph /  8km/h 93% 0.00in /  0mm
06:48 43.1 °F /  6.2 °C 41.2 °F /  5.1 °C 30.20in /  1022.6hPa NW 3.0mph /  4.8km/h 6.0mph /  9.7km/h 93% 0.00in /  0mm
06:54 42.8 °F /  6 °C 40.9 °F /  4.9 °C 30.20in /  1022.6hPa WNW 3.0mph /  4.8km/h 4.0mph /  6.4km/h 93% 0.00in /  0mm
06:59 42.4 °F /  5.8 °C 40.5 °F /  4.7 °C 30.20in /  1022.6hPa WNW 3.0mph /  4.8km/h 5.0mph /  8km/h 93% 0.00in /  0mm
07:04 42.2 °F /  5.7 °C 40.3 °F /  4.6 °C 30.20in /  1022.6hPa WNW 3.0mph /  4.8km/h 4.0mph /  6.4km/h 93% 0.00in /  0mm
07:09 42.0 °F /  5.6 °C 40.1 °F /  4.5 °C 30.20in /  1022.6hPa WNW 2.0mph /  3.2km/h 4.0mph /  6.4km/h 93% 0.00in /  0mm
07:14 41.7 °F /  5.4 °C 39.8 °F /  4.3 °C 30.20in /  1022.6hPa WNW 3.0mph /  4.8km/h 4.0mph /  6.4km/h 93% 0.00in /  0mm
07:19 41.6 °F /  5.3 °C 39.7 °F /  4.3 °C 30.21in /  1022.9hPa NW 2.0mph /  3.2km/h 3.0mph /  4.8km/h 93% 0.00in /  0mm
07:24 41.3 °F /  5.2 °C 39.7 °F /  4.3 °C 30.21in /  1022.9hPa NW 2.0mph /  3.2km/h 3.0mph /  4.8km/h 94% 0.00in /  0mm
07:29 41.1 °F /  5.1 °C 39.5 °F /  4.2 °C 30.21in /  1022.9hPa WNW 1.0mph /  1.6km/h 2.0mph /  3.2km/h 94% 0.00in /  0mm
07:34 40.9 °F /  4.9 °C 39.3 °F /  4.1 °C 30.21in /  1022.9hPa NW 2.0mph /  3.2km/h 2.0mph /  3.2km/h 94% 0.00in /  0mm
07:39 40.8 °F /  4.9 °C 39.2 °F /  4 °C 30.21in /  1022.9hPa Calm   1.0mph /  1.6km/h 94% 0.00in /  0mm
07:44 40.8 °F /  4.9 °C 39.5 °F /  4.2 °C 30.21in /  1022.9hPa NW 1.0mph /  1.6km/h 2.0mph /  3.2km/h 95% 0.00in /  0mm
07:49 40.7 °F /  4.8 °C 39.4 °F /  4.1 °C 30.21in /  1022.9hPa NW 1.0mph /  1.6km/h 1.0mph /  1.6km/h 95% 0.00in /  0mm
07:54 40.6 °F /  4.8 °C 39.3 °F /  4.1 °C 30.22in /  1023.2hPa NW 1.0mph /  1.6km/h 1.0mph /  1.6km/h 95% 0.00in /  0mm
07:59 40.4 °F /  4.7 °C 39.1 °F /  3.9 °C 30.22in /  1023.2hPa NW 1.0mph /  1.6km/h 1.0mph /  1.6km/h 95% 0.00in /  0mm
08:04 40.4 °F /  4.7 °C 39.1 °F /  3.9 °C 30.22in /  1023.2hPa NW 1.0mph /  1.6km/h 2.0mph /  3.2km/h 95% 0.00in /  0mm
08:09 40.5 °F /  4.7 °C 39.2 °F /  4 °C 30.22in /  1023.2hPa NW 1.0mph /  1.6km/h 2.0mph /  3.2km/h 95% 0.00in /  0mm
08:14 40.5 °F /  4.7 °C 39.2 °F /  4 °C 30.23in /  1023.6hPa NW 2.0mph /  3.2km/h 2.0mph /  3.2km/h 95% 0.00in /  0mm
08:19 40.6 °F /  4.8 °C 39.3 °F /  4.1 °C 30.23in /  1023.6hPa NW 3.0mph /  4.8km/h 3.0mph /  4.8km/h 95% 0.00in /  0mm
08:24 40.7 °F /  4.8 °C 39.4 °F /  4.1 °C 30.23in /  1023.6hPa NW 4.0mph /  6.4km/h 4.0mph /  6.4km/h 95% 0.00in /  0mm
08:29 41.1 °F /  5.1 °C 39.8 °F /  4.3 °C 30.23in /  1023.6hPa WNW 3.0mph /  4.8km/h 5.0mph /  8km/h 95% 0.00in /  0mm
08:34 41.3 °F /  5.2 °C 40.0 °F /  4.4 °C 30.23in /  1023.6hPa WNW 4.0mph /  6.4km/h 5.0mph /  8km/h 95% 0.00in /  0mm
08:39 41.5 °F /  5.3 °C 40.2 °F /  4.6 °C 30.24in /  1023.9hPa WNW 5.0mph /  8km/h 5.0mph /  8km/h 95% 0.00in /  0mm
08:44 41.6 °F /  5.3 °C 40.3 °F /  4.6 °C 30.24in /  1023.9hPa WNW 3.0mph /  4.8km/h 4.0mph /  6.4km/h 95% 0.00in /  0mm
08:49 41.8 °F /  5.4 °C 40.5 °F /  4.7 °C 30.24in /  1023.9hPa NW 3.0mph /  4.8km/h 5.0mph /  8km/h 95% 0.00in /  0mm
08:54 41.9 °F /  5.5 °C 40.6 °F /  4.8 °C 30.24in /  1023.9hPa West 2.0mph /  3.2km/h 4.0mph /  6.4km/h 95% 0.00in /  0mm
08:59 41.9 °F /  5.5 °C 40.6 °F /  4.8 °C 30.24in /  1023.9hPa WNW 3.0mph /  4.8km/h 5.0mph /  8km/h 95% 0.00in /  0mm
09:04 41.8 °F /  5.4 °C 40.5 °F /  4.7 °C 30.24in /  1023.9hPa WNW 3.0mph /  4.8km/h 4.0mph /  6.4km/h 95% 0.00in /  0mm
09:09 41.6 °F /  5.3 °C 40.3 °F /  4.6 °C 30.25in /  1024.3hPa NW 5.0mph /  8km/h 5.0mph /  8km/h 95% 0.00in /  0mm
09:14 41.5 °F /  5.3 °C 40.2 °F /  4.6 °C 30.25in /  1024.3hPa NW 4.0mph /  6.4km/h 6.0mph /  9.7km/h 95% 0.00in /  0mm
09:19 41.5 °F /  5.3 °C 40.2 °F /  4.6 °C 30.25in /  1024.3hPa WNW 4.0mph /  6.4km/h 5.0mph /  8km/h 95% 0.00in /  0mm
09:24 41.7 °F /  5.4 °C 40.4 °F /  4.7 °C 30.25in /  1024.3hPa NW 3.0mph /  4.8km/h 4.0mph /  6.4km/h 95% 0.00in /  0mm
09:29 41.9 °F /  5.5 °C 40.8 °F /  4.9 °C 30.25in /  1024.3hPa WNW 3.0mph /  4.8km/h 4.0mph /  6.4km/h 96% 0.00in /  0mm
09:34 42.2 °F /  5.7 °C 40.9 °F /  4.9 °C 30.25in /  1024.3hPa NW 3.0mph /  4.8km/h 4.0mph /  6.4km/h 95% 0.00in /  0mm
09:39 42.3 °F /  5.7 °C 41.0 °F /  5 °C 30.25in /  1024.3hPa WNW 4.0mph /  6.4km/h 6.0mph /  9.7km/h 95% 0.00in /  0mm
09:44 42.7 °F /  5.9 °C 41.4 °F /  5.2 °C 30.25in /  1024.3hPa WNW 3.0mph /  4.8km/h 3.0mph /  4.8km/h 95% 0.00in /  0mm
09:50 43.1 °F /  6.2 °C 41.5 °F /  5.3 °C 30.25in /  1024.3hPa WNW 7.0mph /  11.3km/h 7.0mph /  11.3km/h 94% 0.00in /  0mm
09:55 43.1 °F /  6.2 °C 40.9 °F /  4.9 °C 30.25in /  1024.3hPa NW 2.0mph /  3.2km/h 6.0mph /  9.7km/h 92% 0.00in /  0mm
10:00 43.2 °F /  6.2 °C 40.8 °F /  4.9 °C 30.25in /  1024.3hPa WNW 3.0mph /  4.8km/h 7.0mph /  11.3km/h 91% 0.00in /  0mm
10:05 43.4 °F /  6.3 °C 41.0 °F /  5 °C 30.26in /  1024.6hPa WNW 3.0mph /  4.8km/h 5.0mph /  8km/h 91% 0.00in /  0mm
10:10 44.1 °F /  6.7 °C 41.4 °F /  5.2 °C 30.26in /  1024.6hPa NNE 3.0mph /  4.8km/h 5.0mph /  8km/h 90% 0.00in /  0mm
10:15 44.7 °F /  7.1 °C 41.7 °F /  5.4 °C 30.25in /  1024.3hPa NNE 5.0mph /  8km/h 7.0mph /  11.3km/h 89% 0.00in /  0mm
10:20 45.0 °F /  7.2 °C 41.7 °F /  5.4 °C 30.26in /  1024.6hPa North 2.0mph /  3.2km/h 4.0mph /  6.4km/h 88% 0.00in /  0mm
10:25 45.7 °F /  7.6 °C 41.8 °F /  5.4 °C 30.26in /  1024.6hPa NW 1.0mph /  1.6km/h 4.0mph /  6.4km/h 86% 0.00in /  0mm
10:30 45.4 °F /  7.4 °C 41.2 °F /  5.1 °C 30.26in /  1024.6hPa WNW 4.0mph /  6.4km/h 5.0mph /  8km/h 85% 0.00in /  0mm
10:35 45.3 °F /  7.4 °C 41.1 °F /  5.1 °C 30.26in /  1024.6hPa West 3.0mph /  4.8km/h 4.0mph /  6.4km/h 85% 0.00in /  0mm
10:40 45.3 °F /  7.4 °C 40.8 °F /  4.9 °C 30.26in /  1024.6hPa NW 5.0mph /  8km/h 5.0mph /  8km/h 84% 0.00in /  0mm
10:45 45.4 °F /  7.4 °C 40.9 °F /  4.9 °C 30.26in /  1024.6hPa WNW 3.0mph /  4.8km/h 4.0mph /  6.4km/h 84% 0.00in /  0mm
10:50 45.7 °F /  7.6 °C 41.5 °F /  5.3 °C 30.26in /  1024.6hPa NW 3.0mph /  4.8km/h 3.0mph /  4.8km/h 85% 0.00in /  0mm
10:55 45.6 °F /  7.6 °C 40.7 °F /  4.8 °C 30.26in /  1024.6hPa NNW 4.0mph /  6.4km/h 4.0mph /  6.4km/h 83% 0.00in /  0mm
11:00 45.6 °F /  7.6 °C 40.7 °F /  4.8 °C 30.26in /  1024.6hPa NNE 5.0mph /  8km/h 6.0mph /  9.7km/h 83% 0.00in /  0mm
11:05 46.2 °F /  7.9 °C 41.0 °F /  5 °C 30.26in /  1024.6hPa NNE 4.0mph /  6.4km/h 6.0mph /  9.7km/h 82% 0.00in /  0mm
11:10 47.2 °F /  8.4 °C 42.0 °F /  5.6 °C 30.26in /  1024.6hPa NW 7.0mph /  11.3km/h 7.0mph /  11.3km/h 82% 0.00in /  0mm
11:15 48.0 °F /  8.9 °C 41.5 °F /  5.3 °C 30.26in /  1024.6hPa NNW 5.0mph /  8km/h 9.0mph /  14.5km/h 78% 0.00in /  0mm
11:20 48.3 °F /  9.1 °C 42.1 °F /  5.6 °C 30.26in /  1024.6hPa North 6.0mph /  9.7km/h 6.0mph /  9.7km/h 79% 0.00in /  0mm
11:25 48.7 °F /  9.3 °C 42.2 °F /  5.7 °C 30.26in /  1024.6hPa NW 2.0mph /  3.2km/h 6.0mph /  9.7km/h 78% 0.00in /  0mm
11:31 48.9 °F /  9.4 °C 41.7 °F /  5.4 °C 30.25in /  1024.3hPa WNW 2.0mph /  3.2km/h 4.0mph /  6.4km/h 76% 0.00in /  0mm
11:36 49.3 °F /  9.6 °C 42.1 °F /  5.6 °C 30.25in /  1024.3hPa North 6.0mph /  9.7km/h 6.0mph /  9.7km/h 76% 0.00in /  0mm
11:41 49.6 °F /  9.8 °C 42.7 °F /  5.9 °C 30.25in /  1024.3hPa NW 7.0mph /  11.3km/h 7.0mph /  11.3km/h 77% 0.00in /  0mm
11:46 48.5 °F /  9.2 °C 40.6 °F /  4.8 °C 30.25in /  1024.3hPa WNW 4.0mph /  6.4km/h 6.0mph /  9.7km/h 74% 0.00in /  0mm
11:51 48.4 °F /  9.1 °C 41.2 °F /  5.1 °C 30.25in /  1024.3hPa WSW 2.0mph /  3.2km/h 5.0mph /  8km/h 76% 0.00in /  0mm
11:56 49.1 °F /  9.5 °C 41.2 °F /  5.1 °C 30.25in /  1024.3hPa NE 2.0mph /  3.2km/h 6.0mph /  9.7km/h 74% 0.00in /  0mm
12:01 49.5 °F /  9.7 °C 41.6 °F /  5.3 °C 30.25in /  1024.3hPa North 6.0mph /  9.7km/h 8.0mph /  12.9km/h 74% 0.00in /  0mm
12:06 49.7 °F /  9.8 °C 41.0 °F /  5 °C 30.25in /  1024.3hPa NW 5.0mph /  8km/h 7.0mph /  11.3km/h 72% 0.00in /  0mm
12:11 48.8 °F /  9.3 °C 40.5 °F /  4.7 °C 30.25in /  1024.3hPa NW 4.0mph /  6.4km/h 7.0mph /  11.3km/h 73% 0.00in /  0mm
12:16 49.0 °F /  9.4 °C 40.0 °F /  4.4 °C 30.24in /  1023.9hPa WNW 3.0mph /  4.8km/h 6.0mph /  9.7km/h 71% 0.00in /  0mm
12:22 49.7 °F /  9.8 °C 41.0 °F /  5 °C 30.24in /  1023.9hPa NW 9.0mph /  14.5km/h 10.0mph /  16.1km/h 72% 0.00in /  0mm
12:27 49.5 °F /  9.7 °C 40.5 °F /  4.7 °C 30.24in /  1023.9hPa WNW 3.0mph /  4.8km/h 9.0mph /  14.5km/h 71% 0.00in /  0mm
12:32 49.7 °F /  9.8 °C 40.7 °F /  4.8 °C 30.24in /  1023.9hPa WNW 3.0mph /  4.8km/h 8.0mph /  12.9km/h 71% 0.00in /  0mm
12:37 50.5 °F /  10.3 °C 42.2 °F /  5.7 °C 30.24in /  1023.9hPa NNW 7.0mph /  11.3km/h 7.0mph /  11.3km/h 73% 0.00in /  0mm
12:42 50.1 °F /  10.1 °C 39.6 °F /  4.2 °C 30.24in /  1023.9hPa NW 4.0mph /  6.4km/h 8.0mph /  12.9km/h 67% 0.00in /  0mm
12:47 50.0 °F /  10 °C 39.9 °F /  4.4 °C 30.23in /  1023.6hPa NW 7.0mph /  11.3km/h 9.0mph /  14.5km/h 68% 0.00in /  0mm
12:52 50.6 °F /  10.3 °C 40.4 °F /  4.7 °C 30.23in /  1023.6hPa WSW 3.0mph /  4.8km/h 6.0mph /  9.7km/h 68% 0.00in /  0mm
12:57 51.3 °F /  10.7 °C 41.1 °F /  5.1 °C 30.23in /  1023.6hPa NW 7.0mph /  11.3km/h 11.0mph /  17.7km/h 68% 0.00in /  0mm
13:02 50.4 °F /  10.2 °C 40.6 °F /  4.8 °C 30.23in /  1023.6hPa NNW 5.0mph /  8km/h 8.0mph /  12.9km/h 69% 0.00in /  0mm
13:07 49.6 °F /  9.8 °C 39.9 °F /  4.4 °C 30.22in /  1023.2hPa NW 3.0mph /  4.8km/h 6.0mph /  9.7km/h 69% 0.00in /  0mm
13:12 50.3 °F /  10.2 °C 40.2 °F /  4.6 °C 30.22in /  1023.2hPa NW 2.0mph /  3.2km/h 6.0mph /  9.7km/h 68% 0.00in /  0mm
13:17 50.8 °F /  10.4 °C 39.1 °F /  3.9 °C 30.22in /  1023.2hPa NNW 4.0mph /  6.4km/h 7.0mph /  11.3km/h 64% 0.00in /  0mm
13:22 51.7 °F /  10.9 °C 39.9 °F /  4.4 °C 30.21in /  1022.9hPa WNW 4.0mph /  6.4km/h 6.0mph /  9.7km/h 64% 0.00in /  0mm
13:27 52.2 °F /  11.2 °C 40.8 °F /  4.9 °C 30.21in /  1022.9hPa NW 4.0mph /  6.4km/h 9.0mph /  14.5km/h 65% 0.00in /  0mm
13:32 52.2 °F /  11.2 °C 40.4 °F /  4.7 °C 30.20in /  1022.6hPa NNW 5.0mph /  8km/h 8.0mph /  12.9km/h 64% 0.00in /  0mm
13:37 51.3 °F /  10.7 °C 40.0 °F /  4.4 °C 30.20in /  1022.6hPa NNW 2.0mph /  3.2km/h 5.0mph /  8km/h 65% 0.00in /  0mm
13:42 51.0 °F /  10.6 °C 40.1 °F /  4.5 °C 30.20in /  1022.6hPa NW 9.0mph /  14.5km/h 9.0mph /  14.5km/h 66% 0.00in /  0mm
13:47 50.7 °F /  10.4 °C 40.2 °F /  4.6 °C 30.19in /  1022.2hPa NW 5.0mph /  8km/h 8.0mph /  12.9km/h 67% 0.00in /  0mm
13:52 50.6 °F /  10.3 °C 39.3 °F /  4.1 °C 30.19in /  1022.2hPa NNW 2.0mph /  3.2km/h 6.0mph /  9.7km/h 65% 0.00in /  0mm
13:57 50.8 °F /  10.4 °C 39.9 °F /  4.4 °C 30.19in /  1022.2hPa NW 4.0mph /  6.4km/h 9.0mph /  14.5km/h 66% 0.00in /  0mm
14:02 51.1 °F /  10.6 °C 41.3 °F /  5.2 °C 30.19in /  1022.2hPa NW 6.0mph /  9.7km/h 7.0mph /  11.3km/h 69% 0.00in /  0mm
14:07 50.8 °F /  10.4 °C 39.9 °F /  4.4 °C 30.19in /  1022.2hPa WNW 4.0mph /  6.4km/h 8.0mph /  12.9km/h 66% 0.00in /  0mm
14:12 50.6 °F /  10.3 °C 39.7 °F /  4.3 °C 30.19in /  1022.2hPa NW 3.0mph /  4.8km/h 7.0mph /  11.3km/h 66% 0.00in /  0mm
14:17 51.2 °F /  10.7 °C 41.0 °F /  5 °C 30.19in /  1022.2hPa NW 8.0mph /  12.9km/h 8.0mph /  12.9km/h 68% 0.00in /  0mm
14:23 51.8 °F /  11 °C 41.2 °F /  5.1 °C 30.19in /  1022.2hPa NW 7.0mph /  11.3km/h 7.0mph /  11.3km/h 67% 0.00in /  0mm
14:28 52.0 °F /  11.1 °C 41.4 °F /  5.2 °C 30.18in /  1021.9hPa NNW 3.0mph /  4.8km/h 7.0mph /  11.3km/h 67% 0.00in /  0mm
14:33 52.1 °F /  11.2 °C 41.9 °F /  5.5 °C 30.18in /  1021.9hPa NW 8.0mph /  12.9km/h 8.0mph /  12.9km/h 68% 0.00in /  0mm
14:38 52.5 °F /  11.4 °C 40.7 °F /  4.8 °C 30.18in /  1021.9hPa NW 2.0mph /  3.2km/h 9.0mph /  14.5km/h 64% 0.00in /  0mm
14:43 52.6 °F /  11.4 °C 40.0 °F /  4.4 °C 30.18in /  1021.9hPa NW 4.0mph /  6.4km/h 7.0mph /  11.3km/h 62% 0.00in /  0mm
14:48 52.3 °F /  11.3 °C 40.1 °F /  4.5 °C 30.18in /  1021.9hPa WNW 6.0mph /  9.7km/h 6.0mph /  9.7km/h 63% 0.00in /  0mm
14:53 51.6 °F /  10.9 °C 40.2 °F /  4.6 °C 30.18in /  1021.9hPa WNW 3.0mph /  4.8km/h 7.0mph /  11.3km/h 65% 0.00in /  0mm
14:58 51.5 °F /  10.8 °C 39.3 °F /  4.1 °C 30.18in /  1021.9hPa West 2.0mph /  3.2km/h 3.0mph /  4.8km/h 63% 0.00in /  0mm
15:03 51.6 °F /  10.9 °C 40.2 °F /  4.6 °C 30.18in /  1021.9hPa WNW 5.0mph /  8km/h 8.0mph /  12.9km/h 65% 0.00in /  0mm
15:08 51.2 °F /  10.7 °C 39.5 °F /  4.2 °C 30.18in /  1021.9hPa West 1.0mph /  1.6km/h 6.0mph /  9.7km/h 64% 0.00in /  0mm
15:13 51.0 °F /  10.6 °C 39.7 °F /  4.3 °C 30.18in /  1021.9hPa NW 6.0mph /  9.7km/h 6.0mph /  9.7km/h 65% 0.00in /  0mm
15:18 51.8 °F /  11 °C 41.2 °F /  5.1 °C 30.18in /  1021.9hPa NNW 7.0mph /  11.3km/h 7.0mph /  11.3km/h 67% 0.00in /  0mm
15:23 51.8 °F /  11 °C 40.4 °F /  4.7 °C 30.18in /  1021.9hPa NNW 3.0mph /  4.8km/h 6.0mph /  9.7km/h 65% 0.00in /  0mm
15:28 51.6 °F /  10.9 °C 39.4 °F /  4.1 °C 30.18in /  1021.9hPa NNW 3.0mph /  4.8km/h 4.0mph /  6.4km/h 63% 0.00in /  0mm
15:33 52.0 °F /  11.1 °C 40.6 °F /  4.8 °C 30.17in /  1021.6hPa North 5.0mph /  8km/h 5.0mph /  8km/h 65% 0.00in /  0mm
15:38 52.6 °F /  11.4 °C 40.4 °F /  4.7 °C 30.18in /  1021.9hPa North 2.0mph /  3.2km/h 5.0mph /  8km/h 63% 0.00in /  0mm
15:43 53.3 °F /  11.8 °C 40.2 °F /  4.6 °C 30.18in /  1021.9hPa NW 6.0mph /  9.7km/h 6.0mph /  9.7km/h 61% 0.00in /  0mm
15:48 52.9 °F /  11.6 °C 40.7 °F /  4.8 °C 30.18in /  1021.9hPa NNW 6.0mph /  9.7km/h 10.0mph /  16.1km/h 63% 0.00in /  0mm
15:53 52.0 °F /  11.1 °C 40.2 °F /  4.6 °C 30.18in /  1021.9hPa North 6.0mph /  9.7km/h 8.0mph /  12.9km/h 64% 0.00in /  0mm
15:58 51.4 °F /  10.8 °C 40.8 °F /  4.9 °C 30.18in /  1021.9hPa NW 3.0mph /  4.8km/h 5.0mph /  8km/h 67% 0.00in /  0mm
16:03 51.7 °F /  10.9 °C 41.1 °F /  5.1 °C 30.18in /  1021.9hPa NNW 2.0mph /  3.2km/h 4.0mph /  6.4km/h 67% 0.00in /  0mm
16:08 51.9 °F /  11.1 °C 40.5 °F /  4.7 °C 30.18in /  1021.9hPa NW 2.0mph /  3.2km/h 2.0mph /  3.2km/h 65% 0.00in /  0mm
16:13 52.6 °F /  11.4 °C 40.4 °F /  4.7 °C 30.18in /  1021.9hPa NE 1.0mph /  1.6km/h 6.0mph /  9.7km/h 63% 0.00in /  0mm
16:18 52.7 °F /  11.5 °C 40.5 °F /  4.7 °C 30.17in /  1021.6hPa NNE 3.0mph /  4.8km/h 5.0mph /  8km/h 63% 0.00in /  0mm
16:23 52.8 °F /  11.6 °C 40.2 °F /  4.6 °C 30.18in /  1021.9hPa Calm   3.0mph /  4.8km/h 62% 0.00in /  0mm
16:28 53.2 °F /  11.8 °C 40.5 °F /  4.7 °C 30.17in /  1021.6hPa NW 4.0mph /  6.4km/h 8.0mph /  12.9km/h 62% 0.00in /  0mm
16:33 53.3 °F /  11.8 °C 39.8 °F /  4.3 °C 30.18in /  1021.9hPa NW 6.0mph /  9.7km/h 6.0mph /  9.7km/h 60% 0.00in /  0mm
16:38 53.3 °F /  11.8 °C 39.8 °F /  4.3 °C 30.18in /  1021.9hPa NNE 4.0mph /  6.4km/h 4.0mph /  6.4km/h 60% 0.00in /  0mm
16:43 53.5 °F /  11.9 °C 40.4 °F /  4.7 °C 30.17in /  1021.6hPa NE 5.0mph /  8km/h 6.0mph /  9.7km/h 61% 0.00in /  0mm
16:49 53.2 °F /  11.8 °C 40.1 °F /  4.5 °C 30.18in /  1021.9hPa NNE 2.0mph /  3.2km/h 7.0mph /  11.3km/h 61% 0.00in /  0mm
16:54 53.3 °F /  11.8 °C 40.6 °F /  4.8 °C 30.18in /  1021.9hPa NNE 3.0mph /  4.8km/h 9.0mph /  14.5km/h 62% 0.00in /  0mm
16:59 53.3 °F /  11.8 °C 41.0 °F /  5 °C 30.18in /  1021.9hPa North 5.0mph /  8km/h 6.0mph /  9.7km/h 63% 0.00in /  0mm
17:04 53.1 °F /  11.7 °C 40.8 °F /  4.9 °C 30.18in /  1021.9hPa NE 7.0mph /  11.3km/h 7.0mph /  11.3km/h 63% 0.00in /  0mm
17:09 52.6 °F /  11.4 °C 40.4 °F /  4.7 °C 30.18in /  1021.9hPa NE 5.0mph /  8km/h 8.0mph /  12.9km/h 63% 0.00in /  0mm
17:14 52.1 °F /  11.2 °C 39.9 °F /  4.4 °C 30.18in /  1021.9hPa NE 4.0mph /  6.4km/h 6.0mph /  9.7km/h 63% 0.00in /  0mm
17:19 51.4 °F /  10.8 °C 39.7 °F /  4.3 °C 30.18in /  1021.9hPa NNE 5.0mph /  8km/h 7.0mph /  11.3km/h 64% 0.00in /  0mm
17:24 51.0 °F /  10.6 °C 40.1 °F /  4.5 °C 30.18in /  1021.9hPa NNE 2.0mph /  3.2km/h 4.0mph /  6.4km/h 66% 0.00in /  0mm
17:29 50.7 °F /  10.4 °C 39.8 °F /  4.3 °C 30.17in /  1021.6hPa North 2.0mph /  3.2km/h 5.0mph /  8km/h 66% 0.00in /  0mm
17:34 50.8 °F /  10.4 °C 39.9 °F /  4.4 °C 30.18in /  1021.9hPa North 2.0mph /  3.2km/h 4.0mph /  6.4km/h 66% 0.00in /  0mm
17:39 50.9 °F /  10.5 °C 40.3 °F /  4.6 °C 30.17in /  1021.6hPa North 3.0mph /  4.8km/h 5.0mph /  8km/h 67% 0.00in /  0mm
17:44 51.0 °F /  10.6 °C 40.1 °F /  4.5 °C 30.17in /  1021.6hPa North 3.0mph /  4.8km/h 5.0mph /  8km/h 66% 0.00in /  0mm
17:49 50.9 °F /  10.5 °C 40.0 °F /  4.4 °C 30.17in /  1021.6hPa NNW 3.0mph /  4.8km/h 6.0mph /  9.7km/h 66% 0.00in /  0mm
17:54 50.9 °F /  10.5 °C 40.0 °F /  4.4 °C 30.17in /  1021.6hPa NNW 2.0mph /  3.2km/h 6.0mph /  9.7km/h 66% 0.00in /  0mm
17:59 50.7 °F /  10.4 °C 40.2 °F /  4.6 °C 30.17in /  1021.6hPa North 3.0mph /  4.8km/h 5.0mph /  8km/h 67% 0.00in /  0mm
18:04 50.5 °F /  10.3 °C 40.0 °F /  4.4 °C 30.17in /  1021.6hPa NNE 2.0mph /  3.2km/h 4.0mph /  6.4km/h 67% 0.00in /  0mm
18:09 50.2 °F /  10.1 °C 39.7 °F /  4.3 °C 30.17in /  1021.6hPa North 2.0mph /  3.2km/h 4.0mph /  6.4km/h 67% 0.00in /  0mm
18:14 49.8 °F /  9.9 °C 39.7 °F /  4.3 °C 30.17in /  1021.6hPa North 3.0mph /  4.8km/h 3.0mph /  4.8km/h 68% 0.00in /  0mm
18:19 49.3 °F /  9.6 °C 39.6 °F /  4.2 °C 30.17in /  1021.6hPa North 4.0mph /  6.4km/h 4.0mph /  6.4km/h 69% 0.00in /  0mm
18:24 48.7 °F /  9.3 °C 39.4 °F /  4.1 °C 30.18in /  1021.9hPa North 2.0mph /  3.2km/h 4.0mph /  6.4km/h 70% 0.00in /  0mm
18:29 48.1 °F /  8.9 °C 39.2 °F /  4 °C 30.18in /  1021.9hPa North 2.0mph /  3.2km/h 4.0mph /  6.4km/h 71% 0.00in /  0mm
18:34 47.6 °F /  8.7 °C 39.0 °F /  3.9 °C 30.18in /  1021.9hPa NNW 3.0mph /  4.8km/h 5.0mph /  8km/h 72% 0.00in /  0mm
18:39 47.2 °F /  8.4 °C 39.0 °F /  3.9 °C 30.18in /  1021.9hPa North 2.0mph /  3.2km/h 3.0mph /  4.8km/h 73% 0.00in /  0mm
18:44 46.9 °F /  8.3 °C 39.1 °F /  3.9 °C 30.18in /  1021.9hPa NNW 2.0mph /  3.2km/h 4.0mph /  6.4km/h 74% 0.00in /  0mm
18:49 46.7 °F /  8.2 °C 38.9 °F /  3.8 °C 30.18in /  1021.9hPa NNW 2.0mph /  3.2km/h 3.0mph /  4.8km/h 74% 0.00in /  0mm
18:54 46.5 °F /  8.1 °C 39.0 °F /  3.9 °C 30.18in /  1021.9hPa NNW 2.0mph /  3.2km/h 3.0mph /  4.8km/h 75% 0.00in /  0mm
18:59 46.4 °F /  8 °C 38.9 °F /  3.8 °C 30.18in /  1021.9hPa North 2.0mph /  3.2km/h 3.0mph /  4.8km/h 75% 0.00in /  0mm
19:04 46.1 °F /  7.8 °C 38.6 °F /  3.7 °C 30.18in /  1021.9hPa North 2.0mph /  3.2km/h 4.0mph /  6.4km/h 75% 0.00in /  0mm
19:09 45.9 °F /  7.7 °C 38.8 °F /  3.8 °C 30.18in /  1021.9hPa North 1.0mph /  1.6km/h 3.0mph /  4.8km/h 76% 0.00in /  0mm
19:14 45.6 °F /  7.6 °C 38.5 °F /  3.6 °C 30.18in /  1021.9hPa North 2.0mph /  3.2km/h 3.0mph /  4.8km/h 76% 0.00in /  0mm
19:19 45.3 °F /  7.4 °C 38.5 °F /  3.6 °C 30.18in /  1021.9hPa North 1.0mph /  1.6km/h 2.0mph /  3.2km/h 77% 0.00in /  0mm
19:24 45.1 °F /  7.3 °C 38.3 °F /  3.5 °C 30.18in /  1021.9hPa North 2.0mph /  3.2km/h 2.0mph /  3.2km/h 77% 0.00in /  0mm
19:29 45.1 °F /  7.3 °C 38.7 °F /  3.7 °C 30.18in /  1021.9hPa NNW 2.0mph /  3.2km/h 4.0mph /  6.4km/h 78% 0.00in /  0mm
19:34 44.9 °F /  7.2 °C 38.5 °F /  3.6 °C 30.18in /  1021.9hPa North 3.0mph /  4.8km/h 3.0mph /  4.8km/h 78% 0.00in /  0mm
19:39 44.7 °F /  7.1 °C 38.3 °F /  3.5 °C 30.18in /  1021.9hPa North 3.0mph /  4.8km/h 3.0mph /  4.8km/h 78% 0.00in /  0mm
19:40 44.7 °F /  7.1 °C 38.3 °F /  3.5 °C 30.18in /  1021.9hPa North 3.0mph /  4.8km/h 3.0mph /  4.8km/h 78% 0.00in /  0mm
19:45 44.5 °F /  6.9 °C 38.4 °F /  3.6 °C 30.19in /  1022.2hPa NNW 3.0mph /  4.8km/h 3.0mph /  4.8km/h 79% 0.00in /  0mm
19:50 44.3 °F /  6.8 °C 38.2 °F /  3.4 °C 30.19in /  1022.2hPa North 2.0mph /  3.2km/h 3.0mph /  4.8km/h 79% 0.00in /  0mm
19:55 44.1 °F /  6.7 °C 38.3 °F /  3.5 °C 30.19in /  1022.2hPa North 1.0mph /  1.6km/h 2.0mph /  3.2km/h 80% 0.00in /  0mm
20:00 44.1 °F /  6.7 °C 38.3 °F /  3.5 °C 30.19in /  1022.2hPa NNW 2.0mph /  3.2km/h 3.0mph /  4.8km/h 80% 0.00in /  0mm
20:05 44.0 °F /  6.7 °C 38.2 °F /  3.4 °C 30.20in /  1022.6hPa North 2.0mph /  3.2km/h 2.0mph /  3.2km/h 80% 0.00in /  0mm
20:10 44.0 °F /  6.7 °C 38.2 °F /  3.4 °C 30.20in /  1022.6hPa Calm   2.0mph /  3.2km/h 80% 0.00in /  0mm
20:15 43.9 °F /  6.6 °C 38.1 °F /  3.4 °C 30.20in /  1022.6hPa NNE 2.0mph /  3.2km/h 2.0mph /  3.2km/h 80% 0.00in /  0mm
20:20 43.9 °F /  6.6 °C 38.1 °F /  3.4 °C 30.20in /  1022.6hPa Calm   2.0mph /  3.2km/h 80% 0.00in /  0mm
20:25 43.7 °F /  6.5 °C 38.0 °F /  3.3 °C 30.20in /  1022.6hPa North 1.0mph /  1.6km/h 1.0mph /  1.6km/h 80% 0.00in /  0mm
20:30 43.5 °F /  6.4 °C 38.1 °F /  3.4 °C 30.20in /  1022.6hPa NNE 1.0mph /  1.6km/h 1.0mph /  1.6km/h 81% 0.00in /  0mm
20:35 43.3 °F /  6.3 °C 37.9 °F /  3.3 °C 30.21in /  1022.9hPa NNE 1.0mph /  1.6km/h 2.0mph /  3.2km/h 81% 0.00in /  0mm
20:36 43.3 °F /  6.3 °C 37.9 °F /  3.3 °C 30.21in /  1022.9hPa NNE 1.0mph /  1.6km/h 2.0mph /  3.2km/h 81% 0.00in /  0mm
20:41 43.1 °F /  6.2 °C 38.0 °F /  3.3 °C 30.21in /  1022.9hPa NNW 2.0mph /  3.2km/h 2.0mph /  3.2km/h 82% 0.00in /  0mm
20:46 42.9 °F /  6.1 °C 37.8 °F /  3.2 °C 30.21in /  1022.9hPa North 2.0mph /  3.2km/h 2.0mph /  3.2km/h 82% 0.00in /  0mm
20:51 42.6 °F /  5.9 °C 37.8 °F /  3.2 °C 30.20in /  1022.6hPa NNE 2.0mph /  3.2km/h 2.0mph /  3.2km/h 83% 0.00in /  0mm
20:56 42.4 °F /  5.8 °C 37.6 °F /  3.1 °C 30.20in /  1022.6hPa NNE 1.0mph /  1.6km/h 2.0mph /  3.2km/h 83% 0.00in /  0mm
21:01 42.4 °F /  5.8 °C 37.6 °F /  3.1 °C 30.20in /  1022.6hPa North 1.0mph /  1.6km/h 2.0mph /  3.2km/h 83% 0.00in /  0mm
21:06 42.4 °F /  5.8 °C 37.6 °F /  3.1 °C 30.20in /  1022.6hPa NNE 1.0mph /  1.6km/h 2.0mph /  3.2km/h 83% 0.00in /  0mm
21:11 42.3 °F /  5.7 °C 37.5 °F /  3.1 °C 30.21in /  1022.9hPa North 1.0mph /  1.6km/h 2.0mph /  3.2km/h 83% 0.00in /  0mm
21:16 42.1 °F /  5.6 °C 37.3 °F /  2.9 °C 30.21in /  1022.9hPa North 2.0mph /  3.2km/h 2.0mph /  3.2km/h 83% 0.00in /  0mm
21:21 41.9 °F /  5.5 °C 37.4 °F /  3 °C 30.21in /  1022.9hPa NNW 1.0mph /  1.6km/h 3.0mph /  4.8km/h 84% 0.00in /  0mm
21:26 41.7 °F /  5.4 °C 37.2 °F /  2.9 °C 30.21in /  1022.9hPa North 3.0mph /  4.8km/h 3.0mph /  4.8km/h 84% 0.00in /  0mm
21:31 41.7 °F /  5.4 °C 37.2 °F /  2.9 °C 30.21in /  1022.9hPa NNW 1.0mph /  1.6km/h 2.0mph /  3.2km/h 84% 0.00in /  0mm
21:36 41.5 °F /  5.3 °C 37.0 °F /  2.8 °C 30.21in /  1022.9hPa North 2.0mph /  3.2km/h 3.0mph /  4.8km/h 84% 0.00in /  0mm
21:41 41.3 °F /  5.2 °C 37.1 °F /  2.8 °C 30.21in /  1022.9hPa North 1.0mph /  1.6km/h 2.0mph /  3.2km/h 85% 0.00in /  0mm
21:46 41.4 °F /  5.2 °C 37.2 °F /  2.9 °C 30.21in /  1022.9hPa North 2.0mph /  3.2km/h 2.0mph /  3.2km/h 85% 0.00in /  0mm
21:51 41.4 °F /  5.2 °C 37.2 °F /  2.9 °C 30.21in /  1022.9hPa NNE 1.0mph /  1.6km/h 2.0mph /  3.2km/h 85% 0.00in /  0mm
21:56 41.4 °F /  5.2 °C 37.2 °F /  2.9 °C 30.21in /  1022.9hPa NNE 2.0mph /  3.2km/h 4.0mph /  6.4km/h 85% 0.00in /  0mm
22:01 41.4 °F /  5.2 °C 36.9 °F /  2.7 °C 30.21in /  1022.9hPa North 2.0mph /  3.2km/h 4.0mph /  6.4km/h 84% 0.00in /  0mm
22:06 41.2 °F /  5.1 °C 37.0 °F /  2.8 °C 30.21in /  1022.9hPa North 2.0mph /  3.2km/h 3.0mph /  4.8km/h 85% 0.00in /  0mm
22:11 41.1 °F /  5.1 °C 36.9 °F /  2.7 °C 30.21in /  1022.9hPa NNE 1.0mph /  1.6km/h 2.0mph /  3.2km/h 85% 0.00in /  0mm
22:16 41.1 °F /  5.1 °C 36.9 °F /  2.7 °C 30.21in /  1022.9hPa North 1.0mph /  1.6km/h 2.0mph /  3.2km/h 85% 0.00in /  0mm
22:21 41.2 °F /  5.1 °C 37.0 °F /  2.8 °C 30.21in /  1022.9hPa NNE 1.0mph /  1.6km/h 3.0mph /  4.8km/h 85% 0.00in /  0mm
22:26 41.2 °F /  5.1 °C 36.7 °F /  2.6 °C 30.21in /  1022.9hPa NNE 2.0mph /  3.2km/h 3.0mph /  4.8km/h 84% 0.00in /  0mm
22:31 41.2 °F /  5.1 °C 37.0 °F /  2.8 °C 30.21in /  1022.9hPa NNE 1.0mph /  1.6km/h 3.0mph /  4.8km/h 85% 0.00in /  0mm
22:36 41.2 °F /  5.1 °C 37.0 °F /  2.8 °C 30.21in /  1022.9hPa Calm   2.0mph /  3.2km/h 85% 0.00in /  0mm
22:41 41.3 °F /  5.2 °C 36.8 °F /  2.7 °C 30.21in /  1022.9hPa North 1.0mph /  1.6km/h 2.0mph /  3.2km/h 84% 0.00in /  0mm
22:46 41.2 °F /  5.1 °C 36.7 °F /  2.6 °C 30.21in /  1022.9hPa North 2.0mph /  3.2km/h 2.0mph /  3.2km/h 84% 0.00in /  0mm
22:51 41.1 °F /  5.1 °C 36.6 °F /  2.6 °C 30.21in /  1022.9hPa NNE 3.0mph /  4.8km/h 3.0mph /  4.8km/h 84% 0.00in /  0mm
22:56 41.1 °F /  5.1 °C 36.6 °F /  2.6 °C 30.21in /  1022.9hPa North 1.0mph /  1.6km/h 2.0mph /  3.2km/h 84% 0.00in /  0mm
23:01 40.8 °F /  4.9 °C 36.7 °F /  2.6 °C 30.21in /  1022.9hPa North 2.0mph /  3.2km/h 2.0mph /  3.2km/h 85% 0.00in /  0mm
23:06 40.6 °F /  4.8 °C 36.5 °F /  2.5 °C 30.21in /  1022.9hPa North 1.0mph /  1.6km/h 2.0mph /  3.2km/h 85% 0.00in /  0mm
23:11 40.4 °F /  4.7 °C 36.5 °F /  2.5 °C 30.21in /  1022.9hPa Calm   1.0mph /  1.6km/h 86% 0.00in /  0mm
23:16 40.2 °F /  4.6 °C 36.3 °F /  2.4 °C 30.21in /  1022.9hPa Calm     86% 0.00in /  0mm
23:22 40.1 °F /  4.5 °C 36.5 °F /  2.5 °C 30.21in /  1022.9hPa Calm     87% 0.00in /  0mm
23:27 39.9 °F /  4.4 °C 36.3 °F /  2.4 °C 30.21in /  1022.9hPa Calm     87% 0.00in /  0mm
23:32 39.7 °F /  4.3 °C 36.2 °F /  2.3 °C 30.21in /  1022.9hPa Calm   1.0mph /  1.6km/h 87% 0.00in /  0mm
23:37 39.5 °F /  4.2 °C 36.0 °F /  2.2 °C 30.21in /  1022.9hPa Calm     87% 0.00in /  0mm
23:42 39.3 °F /  4.1 °C 36.0 °F /  2.2 °C 30.21in /  1022.9hPa Calm     88% 0.00in /  0mm
23:47 39.1 °F /  3.9 °C 35.8 °F /  2.1 °C 30.21in /  1022.9hPa Calm     88% 0.00in /  0mm
23:52 39.0 °F /  3.9 °C 36.0 °F /  2.2 °C 30.21in /  1022.9hPa Calm     89% 0.00in /  0mm
23:57 38.8 °F /  3.8 °C 35.8 °F /  2.1 °C 30.21in /  1022.9hPa Calm     89% 0.00in /  0mm
Compliments of Weather Underground